sensor_id;sensor_type;location;lat;lon;timestamp;pressure;altitude;pressure_sealevel;temperature;humidity
12913;BME280;6524;51.368;11.984;2023-02-23T00:03:03;99917.78;;;13.93;67.18
12913;BME280;6524;51.368;11.984;2023-02-23T00:08:03;99916.44;;;14.18;66.31
12913;BME280;6524;51.368;11.984;2023-02-23T00:13:04;99912.38;;;14.12;66.03
12913;BME280;6524;51.368;11.984;2023-02-23T00:18:04;99911.88;;;14.05;66.39
12913;BME280;6524;51.368;11.984;2023-02-23T00:23:05;99916.31;;;13.72;67.59
12913;BME280;6524;51.368;11.984;2023-02-23T00:28:05;99916.94;;;14.08;66.80
12913;BME280;6524;51.368;11.984;2023-02-23T00:33:06;99922.81;;;13.64;68.45
12913;BME280;6524;51.368;11.984;2023-02-23T00:38:06;99924.66;;;14.11;66.95
12913;BME280;6524;51.368;11.984;2023-02-23T00:43:07;99919.69;;;14.23;66.63
12913;BME280;6524;51.368;11.984;2023-02-23T00:48:07;99920.81;;;13.85;68.12
12913;BME280;6524;51.368;11.984;2023-02-23T00:53:09;99915.94;;;14.27;66.09
12913;BME280;6524;51.368;11.984;2023-02-23T00:58:10;99924.59;;;14.61;65.11
12913;BME280;6524;51.368;11.984;2023-02-23T03:48:39;99886.38;;;13.27;67.23
12913;BME280;6524;51.368;11.984;2023-02-23T03:59:31;99893.53;;;13.56;66.92
12913;BME280;6524;51.368;11.984;2023-02-23T04:04:53;99892.88;;;13.18;67.75
12913;BME280;6524;51.368;11.984;2023-02-23T04:10:14;99893.59;;;13.39;66.81
12913;BME280;6524;51.368;11.984;2023-02-23T04:15:38;99892.19;;;13.65;66.04
12913;BME280;6524;51.368;11.984;2023-02-23T04:20:40;99889.88;;;13.76;65.64
12913;BME280;6524;51.368;11.984;2023-02-23T04:25:40;99897.44;;;13.65;66.29
12913;BME280;6524;51.368;11.984;2023-02-23T04:30:42;99898.28;;;13.65;66.40
12913;BME280;6524;51.368;11.984;2023-02-23T04:35:42;99899.09;;;13.50;67.12
12913;BME280;6524;51.368;11.984;2023-02-23T04:40:43;99895.03;;;13.45;67.51
12913;BME280;6524;51.368;11.984;2023-02-23T04:45:43;99894.16;;;13.61;66.85
12913;BME280;6524;51.368;11.984;2023-02-23T04:50:44;99887.16;;;13.78;66.28
12913;BME280;6524;51.368;11.984;2023-02-23T04:55:44;99887.31;;;13.75;65.99
12913;BME280;6524;51.368;11.984;2023-02-23T05:00:44;99891.56;;;13.77;65.68
12913;BME280;6524;51.368;11.984;2023-02-23T05:05:45;99882.50;;;13.34;67.40
12913;BME280;6524;51.368;11.984;2023-02-23T05:10:46;99892.78;;;13.54;67.08
12913;BME280;6524;51.368;11.984;2023-02-23T05:15:46;99891.53;;;13.61;65.82
12913;BME280;6524;51.368;11.984;2023-02-23T05:20:46;99885.16;;;13.83;65.65
12913;BME280;6524;51.368;11.984;2023-02-23T05:25:47;99886.03;;;13.66;66.63
12913;BME280;6524;51.368;11.984;2023-02-23T05:30:47;99883.63;;;13.46;69.32
12913;BME280;6524;51.368;11.984;2023-02-23T05:35:47;99879.66;;;14.03;67.41
12913;BME280;6524;51.368;11.984;2023-02-23T05:40:48;99882.31;;;13.54;68.48
12913;BME280;6524;51.368;11.984;2023-02-23T05:45:48;99883.56;;;13.63;68.01
12913;BME280;6524;51.368;11.984;2023-02-23T05:50:48;99888.88;;;13.79;68.15
12913;BME280;6524;51.368;11.984;2023-02-23T05:55:49;99885.50;;;13.93;67.28
12913;BME280;6524;51.368;11.984;2023-02-23T06:00:49;99898.66;;;13.91;67.29
12913;BME280;6524;51.368;11.984;2023-02-23T06:05:52;99892.25;;;14.12;66.58
12913;BME280;6524;51.368;11.984;2023-02-23T06:10:53;99904.63;;;14.26;66.29
12913;BME280;6524;51.368;11.984;2023-02-23T06:15:53;99901.38;;;14.05;66.72
12913;BME280;6524;51.368;11.984;2023-02-23T06:20:54;99906.13;;;13.99;67.59
12913;BME280;6524;51.368;11.984;2023-02-23T06:25:55;99914.25;;;14.26;67.34
12913;BME280;6524;51.368;11.984;2023-02-23T06:30:56;99920.00;;;14.48;67.66
12913;BME280;6524;51.368;11.984;2023-02-23T06:35:56;99923.22;;;14.22;68.23
12913;BME280;6524;51.368;11.984;2023-02-23T06:40:56;99928.28;;;15.02;65.71
12913;BME280;6524;51.368;11.984;2023-02-23T06:45:57;99929.31;;;15.30;64.97
12913;BME280;6524;51.368;11.984;2023-02-23T06:50:58;99932.84;;;15.29;64.28
12913;BME280;6524;51.368;11.984;2023-02-23T06:55:59;99939.22;;;15.25;64.00
12913;BME280;6524;51.368;11.984;2023-02-23T07:00:59;99951.47;;;15.40;63.47
12913;BME280;6524;51.368;11.984;2023-02-23T07:06:00;99952.19;;;15.28;64.32
12913;BME280;6524;51.368;11.984;2023-02-23T07:11:08;99949.72;;;15.55;63.80
12913;BME280;6524;51.368;11.984;2023-02-23T07:16:09;99957.34;;;15.88;63.15
12913;BME280;6524;51.368;11.984;2023-02-23T07:21:10;99954.97;;;15.55;63.80
12913;BME280;6524;51.368;11.984;2023-02-23T07:26:10;99958.03;;;15.47;64.01
12913;BME280;6524;51.368;11.984;2023-02-23T07:31:15;99964.75;;;14.93;65.73
12913;BME280;6524;51.368;11.984;2023-02-23T07:36:15;99965.19;;;14.53;66.74
12913;BME280;6524;51.368;11.984;2023-02-23T07:41:15;99964.09;;;15.78;62.80
12913;BME280;6524;51.368;11.984;2023-02-23T07:46:16;99948.34;;;15.92;62.72
12913;BME280;6524;51.368;11.984;2023-02-23T07:51:17;99954.34;;;16.09;62.49
12913;BME280;6524;51.368;11.984;2023-02-23T07:56:18;99949.84;;;15.96;63.40
12913;BME280;6524;51.368;11.984;2023-02-23T08:01:18;99953.59;;;15.92;64.03
12913;BME280;6524;51.368;11.984;2023-02-23T08:06:19;99955.56;;;16.03;64.56
12913;BME280;6524;51.368;11.984;2023-02-23T08:11:19;99969.72;;;16.15;64.78
12913;BME280;6524;51.368;11.984;2023-02-23T08:16:20;99976.44;;;16.48;63.95
12913;BME280;6524;51.368;11.984;2023-02-23T08:21:20;99980.59;;;16.23;64.27
12913;BME280;6524;51.368;11.984;2023-02-23T08:26:21;99977.75;;;16.55;63.79
12913;BME280;6524;51.368;11.984;2023-02-23T08:31:23;99985.03;;;16.78;63.62
12913;BME280;6524;51.368;11.984;2023-02-23T08:36:23;99983.66;;;17.00;62.85
12913;BME280;6524;51.368;11.984;2023-02-23T08:41:24;99980.84;;;17.94;60.27
12913;BME280;6524;51.368;11.984;2023-02-23T08:46:24;99989.84;;;18.41;58.58
12913;BME280;6524;51.368;11.984;2023-02-23T08:51:25;99980.94;;;18.42;58.32
12913;BME280;6524;51.368;11.984;2023-02-23T08:56:25;99989.47;;;18.09;59.27
12913;BME280;6524;51.368;11.984;2023-02-23T09:01:26;99993.44;;;17.38;61.25
12913;BME280;6524;51.368;11.984;2023-02-23T09:06:26;99993.00;;;17.44;61.94
12913;BME280;6524;51.368;11.984;2023-02-23T09:11:27;99987.78;;;17.95;60.42
12913;BME280;6524;51.368;11.984;2023-02-23T09:16:27;99985.06;;;17.96;60.04
12913;BME280;6524;51.368;11.984;2023-02-23T09:21:27;99991.66;;;17.51;61.47
12913;BME280;6524;51.368;11.984;2023-02-23T09:26:29;99988.19;;;18.01;60.67
12913;BME280;6524;51.368;11.984;2023-02-23T09:31:31;99993.66;;;17.73;61.08
12913;BME280;6524;51.368;11.984;2023-02-23T09:36:31;99998.69;;;17.38;62.26
12913;BME280;6524;51.368;11.984;2023-02-23T09:52:13;100006.31;;;18.32;60.07
12913;BME280;6524;51.368;11.984;2023-02-23T09:57:37;100000.56;;;18.50;59.49
12913;BME280;6524;51.368;11.984;2023-02-23T10:02:47;100004.88;;;18.27;59.05
12913;BME280;6524;51.368;11.984;2023-02-23T10:08:00;100007.19;;;18.19;59.79
12913;BME280;6524;51.368;11.984;2023-02-23T10:23:41;100007.84;;;19.67;56.97
12913;BME280;6524;51.368;11.984;2023-02-23T10:28:44;100007.03;;;19.89;57.19
12913;BME280;6524;51.368;11.984;2023-02-23T10:33:46;100011.69;;;19.63;56.79
12913;BME280;6524;51.368;11.984;2023-02-23T10:38:47;100005.38;;;20.10;55.39
12913;BME280;6524;51.368;11.984;2023-02-23T10:43:47;100017.16;;;20.18;54.03
12913;BME280;6524;51.368;11.984;2023-02-23T10:48:48;100015.38;;;20.07;54.02
12913;BME280;6524;51.368;11.984;2023-02-23T10:53:50;100001.03;;;20.32;54.29
12913;BME280;6524;51.368;11.984;2023-02-23T10:58:56;100000.44;;;19.95;54.23
12913;BME280;6524;51.368;11.984;2023-02-23T11:04:15;100012.31;;;20.79;52.64
12913;BME280;6524;51.368;11.984;2023-02-23T11:09:31;100008.50;;;20.61;52.80
12913;BME280;6524;51.368;11.984;2023-02-23T11:14:36;99995.84;;;20.96;51.91
12913;BME280;6524;51.368;11.984;2023-02-23T11:19:39;99995.81;;;20.75;53.23
12913;BME280;6524;51.368;11.984;2023-02-23T11:24:43;99995.09;;;20.73;52.78
12913;BME280;6524;51.368;11.984;2023-02-23T11:29:45;99982.88;;;20.93;52.76
12913;BME280;6524;51.368;11.984;2023-02-23T11:34:48;99984.81;;;20.91;52.32
12913;BME280;6524;51.368;11.984;2023-02-23T11:40:25;99978.38;;;20.73;53.01
12913;BME280;6524;51.368;11.984;2023-02-23T11:45:28;99967.28;;;20.68;53.41
12913;BME280;6524;51.368;11.984;2023-02-23T11:50:34;99964.41;;;20.48;54.34
12913;BME280;6524;51.368;11.984;2023-02-23T11:55:35;99965.88;;;20.52;54.06
12913;BME280;6524;51.368;11.984;2023-02-23T12:00:36;99966.50;;;20.56;54.84
12913;BME280;6524;51.368;11.984;2023-02-23T12:05:37;99963.09;;;20.65;54.44
12913;BME280;6524;51.368;11.984;2023-02-23T12:10:40;99962.69;;;20.81;53.81
12913;BME280;6524;51.368;11.984;2023-02-23T12:15:46;99958.47;;;21.11;53.46
12913;BME280;6524;51.368;11.984;2023-02-23T12:20:49;99959.25;;;21.43;52.29
12913;BME280;6524;51.368;11.984;2023-02-23T12:25:57;99959.72;;;20.95;53.79
12913;BME280;6524;51.368;11.984;2023-02-23T12:36:17;99955.56;;;21.14;53.36
12913;BME280;6524;51.368;11.984;2023-02-23T12:41:34;99949.47;;;21.65;52.25
12913;BME280;6524;51.368;11.984;2023-02-23T12:46:43;99952.47;;;21.30;52.31
12913;BME280;6524;51.368;11.984;2023-02-23T13:08:21;99940.59;;;20.48;54.31
12913;BME280;6524;51.368;11.984;2023-02-23T13:24:09;99927.53;;;20.68;52.92
12913;BME280;6524;51.368;11.984;2023-02-23T13:29:37;99923.13;;;20.89;52.86
12913;BME280;6524;51.368;11.984;2023-02-23T13:34:44;99920.56;;;20.67;52.43
12913;BME280;6524;51.368;11.984;2023-02-23T13:39:58;99920.59;;;20.55;52.79
12913;BME280;6524;51.368;11.984;2023-02-23T13:56:00;99921.56;;;20.54;53.20
12913;BME280;6524;51.368;11.984;2023-02-23T14:06:04;99912.00;;;20.31;52.50
12913;BME280;6524;51.368;11.984;2023-02-23T14:11:07;99906.31;;;20.36;52.99
12913;BME280;6524;51.368;11.984;2023-02-23T14:16:12;99906.31;;;20.24;53.13
12913;BME280;6524;51.368;11.984;2023-02-23T14:31:29;99900.22;;;20.01;53.80
12913;BME280;6524;51.368;11.984;2023-02-23T14:36:34;99896.63;;;19.80;56.05
12913;BME280;6524;51.368;11.984;2023-02-23T14:41:44;99911.28;;;20.18;55.51
12913;BME280;6524;51.368;11.984;2023-02-23T14:47:15;99903.16;;;19.87;56.04
12913;BME280;6524;51.368;11.984;2023-02-23T14:52:35;99902.28;;;20.09;55.53
12913;BME280;6524;51.368;11.984;2023-02-23T14:57:41;99907.19;;;20.02;56.24
12913;BME280;6524;51.368;11.984;2023-02-23T15:08:02;99898.06;;;20.06;55.82
12913;BME280;6524;51.368;11.984;2023-02-23T15:13:10;99898.34;;;19.81;56.19
12913;BME280;6524;51.368;11.984;2023-02-23T15:18:20;99900.44;;;19.31;57.73
12913;BME280;6524;51.368;11.984;2023-02-23T15:23:21;99899.63;;;19.53;57.79
12913;BME280;6524;51.368;11.984;2023-02-23T15:28:24;99887.81;;;19.46;57.83
12913;BME280;6524;51.368;11.984;2023-02-23T15:33:25;99897.91;;;19.52;57.19
12913;BME280;6524;51.368;11.984;2023-02-23T15:38:34;99897.06;;;19.29;58.06
12913;BME280;6524;51.368;11.984;2023-02-23T15:43:35;99897.78;;;19.31;57.86
12913;BME280;6524;51.368;11.984;2023-02-23T15:48:42;99896.69;;;19.22;58.83
12913;BME280;6524;51.368;11.984;2023-02-23T15:53:45;99887.81;;;19.34;58.55
12913;BME280;6524;51.368;11.984;2023-02-23T15:58:50;99899.44;;;19.21;58.81
12913;BME280;6524;51.368;11.984;2023-02-23T16:14:15;99897.19;;;18.81;60.96
12913;BME280;6524;51.368;11.984;2023-02-23T16:19:18;99910.34;;;18.57;61.64
12913;BME280;6524;51.368;11.984;2023-02-23T16:24:24;99902.16;;;18.24;63.27
12913;BME280;6524;51.368;11.984;2023-02-23T16:29:29;99903.50;;;18.30;63.09
12913;BME280;6524;51.368;11.984;2023-02-23T16:34:35;99904.13;;;18.34;62.85
12913;BME280;6524;51.368;11.984;2023-02-23T16:39:43;99905.41;;;18.28;62.39
12913;BME280;6524;51.368;11.984;2023-02-23T16:44:44;99890.06;;;18.09;63.08
12913;BME280;6524;51.368;11.984;2023-02-23T16:49:46;99891.81;;;18.45;62.12
12913;BME280;6524;51.368;11.984;2023-02-23T16:54:47;99900.59;;;18.46;61.47
12913;BME280;6524;51.368;11.984;2023-02-23T16:59:51;99897.91;;;17.85;63.29
12913;BME280;6524;51.368;11.984;2023-02-23T17:04:53;99893.47;;;17.86;63.31
12913;BME280;6524;51.368;11.984;2023-02-23T17:09:57;99905.81;;;17.72;63.72
12913;BME280;6524;51.368;11.984;2023-02-23T17:14:58;99900.25;;;17.90;63.03
12913;BME280;6524;51.368;11.984;2023-02-23T17:19:59;99903.38;;;17.69;63.81
12913;BME280;6524;51.368;11.984;2023-02-23T17:24:59;99918.59;;;17.78;63.35
12913;BME280;6524;51.368;11.984;2023-02-23T17:30:03;99918.47;;;17.67;63.75
12913;BME280;6524;51.368;11.984;2023-02-23T17:35:04;99912.16;;;17.57;63.69
12913;BME280;6524;51.368;11.984;2023-02-23T17:40:06;99908.03;;;17.91;63.40
12913;BME280;6524;51.368;11.984;2023-02-23T17:45:08;99905.63;;;17.63;63.80
12913;BME280;6524;51.368;11.984;2023-02-23T17:50:09;99906.78;;;17.71;63.28
12913;BME280;6524;51.368;11.984;2023-02-23T17:55:10;99913.94;;;17.69;63.58
12913;BME280;6524;51.368;11.984;2023-02-23T18:00:13;99922.81;;;17.94;62.27
12913;BME280;6524;51.368;11.984;2023-02-23T18:05:14;99921.91;;;18.19;61.79
12913;BME280;6524;51.368;11.984;2023-02-23T18:10:15;99912.88;;;17.97;62.51
12913;BME280;6524;51.368;11.984;2023-02-23T18:15:16;99925.97;;;17.99;62.31
12913;BME280;6524;51.368;11.984;2023-02-23T18:20:17;99917.97;;;17.88;62.14
12913;BME280;6524;51.368;11.984;2023-02-23T18:25:25;99921.03;;;17.82;62.29
12913;BME280;6524;51.368;11.984;2023-02-23T18:30:27;99923.56;;;17.96;62.31
12913;BME280;6524;51.368;11.984;2023-02-23T18:35:34;99917.97;;;17.62;63.31
12913;BME280;6524;51.368;11.984;2023-02-23T18:40:38;99923.31;;;17.48;63.88
12913;BME280;6524;51.368;11.984;2023-02-23T18:45:38;99924.16;;;17.35;64.58
12913;BME280;6524;51.368;11.984;2023-02-23T18:50:39;99933.34;;;17.68;63.17
12913;BME280;6524;51.368;11.984;2023-02-23T18:55:40;99921.34;;;17.90;62.30
12913;BME280;6524;51.368;11.984;2023-02-23T19:00:40;99925.88;;;17.49;63.05
12913;BME280;6524;51.368;11.984;2023-02-23T19:05:44;99925.13;;;17.34;64.27
12913;BME280;6524;51.368;11.984;2023-02-23T19:10:51;99917.41;;;17.19;64.89
12913;BME280;6524;51.368;11.984;2023-02-23T19:15:52;99912.91;;;17.59;63.49
12913;BME280;6524;51.368;11.984;2023-02-23T19:20:52;99920.69;;;17.48;63.84
12913;BME280;6524;51.368;11.984;2023-02-23T19:25:54;99911.22;;;17.58;63.57
12913;BME280;6524;51.368;11.984;2023-02-23T19:31:09;99914.13;;;17.02;64.84
12913;BME280;6524;51.368;11.984;2023-02-23T19:36:13;99905.91;;;17.20;64.93
12913;BME280;6524;51.368;11.984;2023-02-23T19:41:16;99914.56;;;17.34;64.01
12913;BME280;6524;51.368;11.984;2023-02-23T19:46:17;99912.13;;;17.19;64.38
12913;BME280;6524;51.368;11.984;2023-02-23T19:51:19;99911.38;;;17.04;64.86
12913;BME280;6524;51.368;11.984;2023-02-23T19:56:20;99916.25;;;17.23;64.24
12913;BME280;6524;51.368;11.984;2023-02-23T20:01:22;99917.38;;;17.06;64.92
12913;BME280;6524;51.368;11.984;2023-02-23T20:06:29;99915.72;;;17.18;64.57
12913;BME280;6524;51.368;11.984;2023-02-23T20:11:31;99910.13;;;17.22;63.49
12913;BME280;6524;51.368;11.984;2023-02-23T20:16:32;99907.84;;;17.30;62.15
12913;BME280;6524;51.368;11.984;2023-02-23T20:21:33;99911.41;;;17.42;61.19
12913;BME280;6524;51.368;11.984;2023-02-23T20:26:35;99909.81;;;16.74;62.13
12913;BME280;6524;51.368;11.984;2023-02-23T20:31:37;99913.28;;;17.02;60.79
12913;BME280;6524;51.368;11.984;2023-02-23T20:36:38;99912.09;;;16.93;61.28
12913;BME280;6524;51.368;11.984;2023-02-23T20:41:39;99915.66;;;16.92;60.56
12913;BME280;6524;51.368;11.984;2023-02-23T20:46:43;99923.31;;;16.82;60.75
12913;BME280;6524;51.368;11.984;2023-02-23T20:51:45;99916.59;;;16.78;61.16
12913;BME280;6524;51.368;11.984;2023-02-23T20:56:46;99911.19;;;16.53;61.89
12913;BME280;6524;51.368;11.984;2023-02-23T21:01:57;99914.13;;;16.48;61.93
12913;BME280;6524;51.368;11.984;2023-02-23T21:07:01;99904.91;;;16.55;62.21
12913;BME280;6524;51.368;11.984;2023-02-23T21:12:06;99907.38;;;16.44;62.51
12913;BME280;6524;51.368;11.984;2023-02-23T21:17:09;99904.38;;;15.94;63.72
12913;BME280;6524;51.368;11.984;2023-02-23T21:22:09;99906.72;;;16.40;63.12
12913;BME280;6524;51.368;11.984;2023-02-23T21:27:12;99913.03;;;16.38;62.90
12913;BME280;6524;51.368;11.984;2023-02-23T21:32:13;99914.38;;;16.16;63.76
12913;BME280;6524;51.368;11.984;2023-02-23T21:37:14;99916.47;;;16.11;64.41
12913;BME280;6524;51.368;11.984;2023-02-23T21:42:15;99909.06;;;16.04;64.57
12913;BME280;6524;51.368;11.984;2023-02-23T21:47:15;99909.78;;;16.20;65.07
12913;BME280;6524;51.368;11.984;2023-02-23T21:52:16;99906.94;;;16.37;64.51
12913;BME280;6524;51.368;11.984;2023-02-23T21:57:17;99901.97;;;16.33;64.16
12913;BME280;6524;51.368;11.984;2023-02-23T22:02:22;99902.63;;;16.22;64.90
12913;BME280;6524;51.368;11.984;2023-02-23T22:07:22;99902.31;;;16.14;65.36
12913;BME280;6524;51.368;11.984;2023-02-23T22:12:23;99894.22;;;16.17;65.29
12913;BME280;6524;51.368;11.984;2023-02-23T22:17:26;99895.00;;;15.62;66.99
12913;BME280;6524;51.368;11.984;2023-02-23T22:22:26;99888.25;;;15.72;66.83
12913;BME280;6524;51.368;11.984;2023-02-23T22:27:27;99881.66;;;15.93;65.82
12913;BME280;6524;51.368;11.984;2023-02-23T22:32:28;99883.53;;;15.91;65.09
12913;BME280;6524;51.368;11.984;2023-02-23T22:37:31;99880.00;;;15.78;64.46
12913;BME280;6524;51.368;11.984;2023-02-23T22:42:32;99870.22;;;15.80;63.55
12913;BME280;6524;51.368;11.984;2023-02-23T22:47:34;99870.13;;;15.53;63.01
12913;BME280;6524;51.368;11.984;2023-02-23T22:52:34;99865.53;;;15.42;63.16
12913;BME280;6524;51.368;11.984;2023-02-23T22:57:35;99868.50;;;15.50;62.83
12913;BME280;6524;51.368;11.984;2023-02-23T23:02:35;99862.84;;;14.99;64.30
12913;BME280;6524;51.368;11.984;2023-02-23T23:07:35;99864.53;;;15.00;64.28
12913;BME280;6524;51.368;11.984;2023-02-23T23:12:36;99868.03;;;14.85;65.09
12913;BME280;6524;51.368;11.984;2023-02-23T23:17:37;99855.06;;;14.68;65.58
12913;BME280;6524;51.368;11.984;2023-02-23T23:22:37;99860.41;;;14.66;65.21
12913;BME280;6524;51.368;11.984;2023-02-23T23:27:37;99851.91;;;15.21;64.13
12913;BME280;6524;51.368;11.984;2023-02-23T23:32:40;99855.19;;;15.25;63.30
12913;BME280;6524;51.368;11.984;2023-02-23T23:37:41;99850.31;;;15.04;63.45
12913;BME280;6524;51.368;11.984;2023-02-23T23:42:42;99849.75;;;15.42;62.74
12913;BME280;6524;51.368;11.984;2023-02-23T23:47:45;99852.38;;;15.57;62.54
12913;BME280;6524;51.368;11.984;2023-02-23T23:52:46;99853.44;;;15.68;61.69
12913;BME280;6524;51.368;11.984;2023-02-23T23:57:46;99840.38;;;15.24;62.20
